sensor_id;sensor_type;location;lat;lon;timestamp;temperature;humidity
64638;HTU21D;51049;45.046;38.950;2023-03-08T00:00:32;7.27;57.84
64638;HTU21D;51049;45.046;38.950;2023-03-08T00:02:58;7.24;57.96
64638;HTU21D;51049;45.046;38.950;2023-03-08T00:05:24;7.25;58.03
64638;HTU21D;51049;45.046;38.950;2023-03-08T00:07:53;7.32;58.02
64638;HTU21D;51049;45.046;38.950;2023-03-08T00:10:25;7.44;57.94
64638;HTU21D;51049;45.046;38.950;2023-03-08T00:13:06;7.49;57.82
64638;HTU21D;51049;45.046;38.950;2023-03-08T00:15:36;7.54;57.78
64638;HTU21D;51049;45.046;38.950;2023-03-08T00:18:10;7.57;57.77
64638;HTU21D;51049;45.046;38.950;2023-03-08T00:20:39;7.61;57.80
64638;HTU21D;51049;45.046;38.950;2023-03-08T00:23:05;7.68;57.73
64638;HTU21D;51049;45.046;38.950;2023-03-08T00:25:33;7.70;57.74
64638;HTU21D;51049;45.046;38.950;2023-03-08T00:27:59;7.73;57.77
64638;HTU21D;51049;45.046;38.950;2023-03-08T00:30:25;7.79;57.77
64638;HTU21D;51049;45.046;38.950;2023-03-08T00:32:57;7.84;57.73
64638;HTU21D;51049;45.046;38.950;2023-03-08T00:35:25;7.87;57.71
64638;HTU21D;51049;45.046;38.950;2023-03-08T00:38:03;7.89;57.74
64638;HTU21D;51049;45.046;38.950;2023-03-08T00:40:32;7.93;57.73
64638;HTU21D;51049;45.046;38.950;2023-03-08T00:43:05;7.93;57.71
64638;HTU21D;51049;45.046;38.950;2023-03-08T00:45:34;7.94;57.73
64638;HTU21D;51049;45.046;38.950;2023-03-08T00:48:00;7.96;57.74
64638;HTU21D;51049;45.046;38.950;2023-03-08T00:50:32;7.93;57.78
64638;HTU21D;51049;45.046;38.950;2023-03-08T00:53:00;7.93;57.77
64638;HTU21D;51049;45.046;38.950;2023-03-08T00:55:26;7.90;57.77
64638;HTU21D;51049;45.046;38.950;2023-03-08T00:58:03;7.90;57.92
64638;HTU21D;51049;45.046;38.950;2023-03-08T01:00:29;7.91;57.90
64638;HTU21D;51049;45.046;38.950;2023-03-08T01:03:01;7.96;57.93
64638;HTU21D;51049;45.046;38.950;2023-03-08T01:05:28;8.01;57.91
64638;HTU21D;51049;45.046;38.950;2023-03-08T01:07:58;8.01;57.84
64638;HTU21D;51049;45.046;38.950;2023-03-08T01:10:26;8.02;57.84
64638;HTU21D;51049;45.046;38.950;2023-03-08T01:12:52;7.98;57.80
64638;HTU21D;51049;45.046;38.950;2023-03-08T01:15:21;7.91;57.87
64638;HTU21D;51049;45.046;38.950;2023-03-08T01:18:11;7.83;57.93
64638;HTU21D;51049;45.046;38.950;2023-03-08T01:20:38;7.74;58.00
64638;HTU21D;51049;45.046;38.950;2023-03-08T01:23:07;7.69;58.14
64638;HTU21D;51049;45.046;38.950;2023-03-08T01:25:36;7.65;58.19
64638;HTU21D;51049;45.046;38.950;2023-03-08T01:28:02;7.64;58.22
64638;HTU21D;51049;45.046;38.950;2023-03-08T01:30:31;7.60;58.17
64638;HTU21D;51049;45.046;38.950;2023-03-08T01:32:58;7.54;58.23
64638;HTU21D;51049;45.046;38.950;2023-03-08T01:35:24;7.48;58.30
64638;HTU21D;51049;45.046;38.950;2023-03-08T01:37:53;7.41;58.35
64638;HTU21D;51049;45.046;38.950;2023-03-08T01:40:23;7.42;58.40
64638;HTU21D;51049;45.046;38.950;2023-03-08T01:42:58;7.46;58.51
64638;HTU21D;51049;45.046;38.950;2023-03-08T01:48:24;7.48;58.32
64638;HTU21D;51049;45.046;38.950;2023-03-08T01:51:00;7.44;58.37
64638;HTU21D;51049;45.046;38.950;2023-03-08T01:53:27;7.44;58.42
64638;HTU21D;51049;45.046;38.950;2023-03-08T01:55:54;7.42;58.46
64638;HTU21D;51049;45.046;38.950;2023-03-08T01:58:21;7.44;58.55
64638;HTU21D;51049;45.046;38.950;2023-03-08T02:00:48;7.48;58.60
64638;HTU21D;51049;45.046;38.950;2023-03-08T02:03:14;7.52;58.61
64638;HTU21D;51049;45.046;38.950;2023-03-08T02:05:42;7.50;58.60
64638;HTU21D;51049;45.046;38.950;2023-03-08T02:08:15;7.47;58.62
64638;HTU21D;51049;45.046;38.950;2023-03-08T02:10:43;7.42;58.62
64638;HTU21D;51049;45.046;38.950;2023-03-08T02:13:09;7.37;58.74
64638;HTU21D;51049;45.046;38.950;2023-03-08T02:15:39;7.35;58.85
64638;HTU21D;51049;45.046;38.950;2023-03-08T02:18:06;7.35;58.88
64638;HTU21D;51049;45.046;38.950;2023-03-08T02:20:33;7.38;58.88
64638;HTU21D;51049;45.046;38.950;2023-03-08T02:23:11;7.37;58.86
64638;HTU21D;51049;45.046;38.950;2023-03-08T02:25:40;7.30;58.83
64638;HTU21D;51049;45.046;38.950;2023-03-08T02:28:09;7.22;58.92
64638;HTU21D;51049;45.046;38.950;2023-03-08T02:30:37;7.15;59.05
64638;HTU21D;51049;45.046;38.950;2023-03-08T02:33:08;7.13;59.09
64638;HTU21D;51049;45.046;38.950;2023-03-08T02:35:35;7.12;59.07
64638;HTU21D;51049;45.046;38.950;2023-03-08T02:38:03;7.09;59.16
64638;HTU21D;51049;45.046;38.950;2023-03-08T02:40:30;7.09;59.13
64638;HTU21D;51049;45.046;38.950;2023-03-08T02:43:00;7.10;59.18
64638;HTU21D;51049;45.046;38.950;2023-03-08T02:45:26;7.10;59.16
64638;HTU21D;51049;45.046;38.950;2023-03-08T02:47:58;7.13;59.16
64638;HTU21D;51049;45.046;38.950;2023-03-08T02:50:24;7.10;59.12
64638;HTU21D;51049;45.046;38.950;2023-03-08T02:52:57;7.05;59.14
64638;HTU21D;51049;45.046;38.950;2023-03-08T02:55:35;7.02;59.26
64638;HTU21D;51049;45.046;38.950;2023-03-08T02:58:07;7.03;59.27
64638;HTU21D;51049;45.046;38.950;2023-03-08T03:00:34;7.08;59.32
64638;HTU21D;51049;45.046;38.950;2023-03-08T03:03:05;7.12;59.31
64638;HTU21D;51049;45.046;38.950;2023-03-08T03:05:34;7.17;59.28
64638;HTU21D;51049;45.046;38.950;2023-03-08T03:08:04;7.23;59.32
64638;HTU21D;51049;45.046;38.950;2023-03-08T03:10:37;7.33;59.24
64638;HTU21D;51049;45.046;38.950;2023-03-08T03:13:06;7.44;59.19
64638;HTU21D;51049;45.046;38.950;2023-03-08T03:15:37;7.53;59.16
64638;HTU21D;51049;45.046;38.950;2023-03-08T03:18:06;7.58;59.09
64638;HTU21D;51049;45.046;38.950;2023-03-08T03:20:34;7.59;59.08
64638;HTU21D;51049;45.046;38.950;2023-03-08T03:23:03;7.60;59.07
64638;HTU21D;51049;45.046;38.950;2023-03-08T03:25:47;7.54;59.09
64638;HTU21D;51049;45.046;38.950;2023-03-08T03:28:22;7.47;59.15
64638;HTU21D;51049;45.046;38.950;2023-03-08T03:30:49;7.41;59.27
64638;HTU21D;51049;45.046;38.950;2023-03-08T03:33:15;7.39;59.35
64638;HTU21D;51049;45.046;38.950;2023-03-08T03:35:41;7.38;59.40
64638;HTU21D;51049;45.046;38.950;2023-03-08T03:38:08;7.37;59.43
64638;HTU21D;51049;45.046;38.950;2023-03-08T03:40:35;7.38;59.41
64638;HTU21D;51049;45.046;38.950;2023-03-08T03:43:02;7.35;59.37
64638;HTU21D;51049;45.046;38.950;2023-03-08T03:45:29;7.35;59.46
64638;HTU21D;51049;45.046;38.950;2023-03-08T03:48:03;7.35;59.45
64638;HTU21D;51049;45.046;38.950;2023-03-08T03:50:30;7.33;59.42
64638;HTU21D;51049;45.046;38.950;2023-03-08T03:53:01;7.31;59.44
64638;HTU21D;51049;45.046;38.950;2023-03-08T03:55:28;7.29;59.51
64638;HTU21D;51049;45.046;38.950;2023-03-08T03:57:57;7.29;59.59
64638;HTU21D;51049;45.046;38.950;2023-03-08T04:00:23;7.40;59.66
64638;HTU21D;51049;45.046;38.950;2023-03-08T04:03:09;7.55;59.55
64638;HTU21D;51049;45.046;38.950;2023-03-08T04:05:36;7.63;59.46
64638;HTU21D;51049;45.046;38.950;2023-03-08T04:08:06;7.73;59.41
64638;HTU21D;51049;45.046;38.950;2023-03-08T04:10:35;7.79;59.39
64638;HTU21D;51049;45.046;38.950;2023-03-08T04:13:04;7.87;59.38
64638;HTU21D;51049;45.046;38.950;2023-03-08T04:15:31;7.93;59.39
64638;HTU21D;51049;45.046;38.950;2023-03-08T04:18:00;8.02;59.35
64638;HTU21D;51049;45.046;38.950;2023-03-08T04:20:45;8.09;59.35
64638;HTU21D;51049;45.046;38.950;2023-03-08T04:23:13;8.18;59.31
64638;HTU21D;51049;45.046;38.950;2023-03-08T04:25:42;8.23;59.27
64638;HTU21D;51049;45.046;38.950;2023-03-08T04:28:13;8.27;59.28
64638;HTU21D;51049;45.046;38.950;2023-03-08T04:30:40;8.27;59.22
64638;HTU21D;51049;45.046;38.950;2023-03-08T04:33:29;8.28;59.26
64638;HTU21D;51049;45.046;38.950;2023-03-08T04:36:03;8.28;59.34
64638;HTU21D;51049;45.046;38.950;2023-03-08T04:38:30;8.32;59.35
64638;HTU21D;51049;45.046;38.950;2023-03-08T04:41:01;8.32;59.38
64638;HTU21D;51049;45.046;38.950;2023-03-08T04:43:56;8.42;59.99
64638;HTU21D;51049;45.046;38.950;2023-03-08T04:46:33;8.57;60.47
64638;HTU21D;51049;45.046;38.950;2023-03-08T04:49:00;8.73;60.73
64638;HTU21D;51049;45.046;38.950;2023-03-08T04:51:32;8.83;60.96
64638;HTU21D;51049;45.046;38.950;2023-03-08T04:54:02;8.98;61.28
64638;HTU21D;51049;45.046;38.950;2023-03-08T04:56:34;9.09;61.44
64638;HTU21D;51049;45.046;38.950;2023-03-08T04:59:00;9.18;61.36
64638;HTU21D;51049;45.046;38.950;2023-03-08T05:01:26;9.26;61.18
64638;HTU21D;51049;45.046;38.950;2023-03-08T05:03:53;9.34;60.96
64638;HTU21D;51049;45.046;38.950;2023-03-08T05:06:25;9.40;60.67
64638;HTU21D;51049;45.046;38.950;2023-03-08T05:08:55;9.48;60.41
64638;HTU21D;51049;45.046;38.950;2023-03-08T05:11:25;9.56;60.21
64638;HTU21D;51049;45.046;38.950;2023-03-08T05:13:54;9.64;59.96
64638;HTU21D;51049;45.046;38.950;2023-03-08T05:16:21;9.69;59.77
64638;HTU21D;51049;45.046;38.950;2023-03-08T05:18:47;9.79;59.57
64638;HTU21D;51049;45.046;38.950;2023-03-08T05:21:18;9.83;59.37
64638;HTU21D;51049;45.046;38.950;2023-03-08T05:23:49;9.88;59.24
64638;HTU21D;51049;45.046;38.950;2023-03-08T05:26:25;9.92;59.15
64638;HTU21D;51049;45.046;38.950;2023-03-08T05:28:54;9.96;59.07
64638;HTU21D;51049;45.046;38.950;2023-03-08T05:31:25;9.99;59.02
64638;HTU21D;51049;45.046;38.950;2023-03-08T05:33:53;10.04;59.00
64638;HTU21D;51049;45.046;38.950;2023-03-08T05:36:38;10.12;58.98
64638;HTU21D;51049;45.046;38.950;2023-03-08T05:39:06;10.20;58.96
64638;HTU21D;51049;45.046;38.950;2023-03-08T05:42:02;10.28;58.95
64638;HTU21D;51049;45.046;38.950;2023-03-08T05:44:39;10.38;58.93
64638;HTU21D;51049;45.046;38.950;2023-03-08T05:47:10;10.48;58.94
64638;HTU21D;51049;45.046;38.950;2023-03-08T05:49:39;10.58;58.96
64638;HTU21D;51049;45.046;38.950;2023-03-08T05:52:09;10.69;58.97
64638;HTU21D;51049;45.046;38.950;2023-03-08T05:54:36;10.81;58.98
64638;HTU21D;51049;45.046;38.950;2023-03-08T05:57:11;10.92;58.98
64638;HTU21D;51049;45.046;38.950;2023-03-08T05:59:37;11.01;58.99
64638;HTU21D;51049;45.046;38.950;2023-03-08T06:02:05;11.12;59.00
64638;HTU21D;51049;45.046;38.950;2023-03-08T06:05:01;11.26;58.99
64638;HTU21D;51049;45.046;38.950;2023-03-08T06:07:31;11.39;59.01
64638;HTU21D;51049;45.046;38.950;2023-03-08T06:10:07;11.56;58.96
64638;HTU21D;51049;45.046;38.950;2023-03-08T06:12:34;11.70;58.85
64638;HTU21D;51049;45.046;38.950;2023-03-08T06:15:11;11.84;58.68
64638;HTU21D;51049;45.046;38.950;2023-03-08T06:17:44;11.92;58.54
64638;HTU21D;51049;45.046;38.950;2023-03-08T06:20:14;12.05;58.39
64638;HTU21D;51049;45.046;38.950;2023-03-08T06:26:46;12.33;58.13
64638;HTU21D;51049;45.046;38.950;2023-03-08T06:29:14;12.44;58.01
64638;HTU21D;51049;45.046;38.950;2023-03-08T06:31:40;12.55;57.89
64638;HTU21D;51049;45.046;38.950;2023-03-08T06:34:10;12.64;57.74
64638;HTU21D;51049;45.046;38.950;2023-03-08T06:36:40;12.73;57.67
64638;HTU21D;51049;45.046;38.950;2023-03-08T06:39:06;12.85;57.61
64638;HTU21D;51049;45.046;38.950;2023-03-08T06:41:32;12.95;57.52
64638;HTU21D;51049;45.046;38.950;2023-03-08T06:44:11;13.08;57.39
64638;HTU21D;51049;45.046;38.950;2023-03-08T06:46:40;13.18;57.25
64638;HTU21D;51049;45.046;38.950;2023-03-08T06:49:06;13.29;57.13
64638;HTU21D;51049;45.046;38.950;2023-03-08T06:51:33;13.40;57.00
64638;HTU21D;51049;45.046;38.950;2023-03-08T06:54:00;13.52;56.81
64638;HTU21D;51049;45.046;38.950;2023-03-08T06:56:37;13.65;56.71
64638;HTU21D;51049;45.046;38.950;2023-03-08T06:59:05;13.77;56.62
64638;HTU21D;51049;45.046;38.950;2023-03-08T07:01:31;13.91;56.45
64638;HTU21D;51049;45.046;38.950;2023-03-08T07:04:00;14.03;56.29
64638;HTU21D;51049;45.046;38.950;2023-03-08T07:06:33;14.15;56.06
64638;HTU21D;51049;45.046;38.950;2023-03-08T07:08:59;14.26;55.86
64638;HTU21D;51049;45.046;38.950;2023-03-08T07:11:25;14.37;55.61
64638;HTU21D;51049;45.046;38.950;2023-03-08T07:13:53;14.48;55.36
64638;HTU21D;51049;45.046;38.950;2023-03-08T07:16:19;14.57;55.24
64638;HTU21D;51049;45.046;38.950;2023-03-08T07:18:45;14.64;55.11
64638;HTU21D;51049;45.046;38.950;2023-03-08T07:21:17;14.74;54.88
64638;HTU21D;51049;45.046;38.950;2023-03-08T07:24:02;14.84;54.84
64638;HTU21D;51049;45.046;38.950;2023-03-08T07:26:59;14.98;54.39
64638;HTU21D;51049;45.046;38.950;2023-03-08T07:29:25;15.08;54.17
64638;HTU21D;51049;45.046;38.950;2023-03-08T07:32:10;15.18;53.98
64638;HTU21D;51049;45.046;38.950;2023-03-08T07:34:40;15.27;54.10
64638;HTU21D;51049;45.046;38.950;2023-03-08T07:37:15;15.39;53.59
64638;HTU21D;51049;45.046;38.950;2023-03-08T07:39:44;15.47;53.45
64638;HTU21D;51049;45.046;38.950;2023-03-08T07:42:26;15.55;53.13
64638;HTU21D;51049;45.046;38.950;2023-03-08T07:45:02;15.65;53.12
64638;HTU21D;51049;45.046;38.950;2023-03-08T07:47:33;15.72;52.89
64638;HTU21D;51049;45.046;38.950;2023-03-08T07:50:09;15.80;52.59
64638;HTU21D;51049;45.046;38.950;2023-03-08T07:52:39;15.89;52.63
64638;HTU21D;51049;45.046;38.950;2023-03-08T07:55:05;15.99;52.36
64638;HTU21D;51049;45.046;38.950;2023-03-08T07:57:36;16.05;52.20
64638;HTU21D;51049;45.046;38.950;2023-03-08T08:00:09;16.13;52.16
64638;HTU21D;51049;45.046;38.950;2023-03-08T08:02:47;16.20;52.04
64638;HTU21D;51049;45.046;38.950;2023-03-08T08:05:13;16.32;51.94
64638;HTU21D;51049;45.046;38.950;2023-03-08T08:07:45;16.43;51.78
64638;HTU21D;51049;45.046;38.950;2023-03-08T08:11:01;16.60;51.75
64638;HTU21D;51049;45.046;38.950;2023-03-08T08:13:35;16.70;51.30
64638;HTU21D;51049;45.046;38.950;2023-03-08T08:16:02;16.77;50.92
64638;HTU21D;51049;45.046;38.950;2023-03-08T08:18:32;16.85;51.09
64638;HTU21D;51049;45.046;38.950;2023-03-08T08:21:08;16.95;51.08
64638;HTU21D;51049;45.046;38.950;2023-03-08T08:23:41;17.06;50.92
64638;HTU21D;51049;45.046;38.950;2023-03-08T08:26:16;17.17;50.53
64638;HTU21D;51049;45.046;38.950;2023-03-08T08:28:59;17.28;50.49
64638;HTU21D;51049;45.046;38.950;2023-03-08T08:31:55;17.44;50.21
64638;HTU21D;51049;45.046;38.950;2023-03-08T08:34:30;17.58;49.96
64638;HTU21D;51049;45.046;38.950;2023-03-08T08:37:10;17.69;49.83
64638;HTU21D;51049;45.046;38.950;2023-03-08T08:40:02;17.82;49.02
64638;HTU21D;51049;45.046;38.950;2023-03-08T08:42:28;17.92;48.33
64638;HTU21D;51049;45.046;38.950;2023-03-08T08:44:56;17.99;48.40
64638;HTU21D;51049;45.046;38.950;2023-03-08T08:47:27;18.10;48.05
64638;HTU21D;51049;45.046;38.950;2023-03-08T08:50:06;18.14;47.37
64638;HTU21D;51049;45.046;38.950;2023-03-08T08:52:41;18.22;47.37
64638;HTU21D;51049;45.046;38.950;2023-03-08T08:55:11;18.30;47.05
64638;HTU21D;51049;45.046;38.950;2023-03-08T08:58:09;18.38;46.80
64638;HTU21D;51049;45.046;38.950;2023-03-08T09:01:03;18.49;46.89
64638;HTU21D;51049;45.046;38.950;2023-03-08T09:03:29;18.62;46.89
64638;HTU21D;51049;45.046;38.950;2023-03-08T09:06:16;18.71;46.47
64638;HTU21D;51049;45.046;38.950;2023-03-08T09:08:56;18.80;46.12
64638;HTU21D;51049;45.046;38.950;2023-03-08T09:11:43;18.80;45.43
64638;HTU21D;51049;45.046;38.950;2023-03-08T09:14:17;18.77;45.08
64638;HTU21D;51049;45.046;38.950;2023-03-08T09:16:54;18.78;44.81
64638;HTU21D;51049;45.046;38.950;2023-03-08T09:19:44;18.78;44.25
64638;HTU21D;51049;45.046;38.950;2023-03-08T09:22:27;18.80;44.32
64638;HTU21D;51049;45.046;38.950;2023-03-08T09:25:07;18.83;43.70
64638;HTU21D;51049;45.046;38.950;2023-03-08T09:28:14;18.83;43.39
64638;HTU21D;51049;45.046;38.950;2023-03-08T09:30:45;18.86;43.51
64638;HTU21D;51049;45.046;38.950;2023-03-08T09:33:23;18.94;42.76
64638;HTU21D;51049;45.046;38.950;2023-03-08T09:35:59;19.00;43.06
64638;HTU21D;51049;45.046;38.950;2023-03-08T09:38:37;19.11;42.55
64638;HTU21D;51049;45.046;38.950;2023-03-08T09:44:26;19.27;42.19
64638;HTU21D;51049;45.046;38.950;2023-03-08T09:47:40;19.31;42.32
64638;HTU21D;51049;45.046;38.950;2023-03-08T09:56:30;19.31;41.24
64638;HTU21D;51049;45.046;38.950;2023-03-08T10:02:35;19.39;41.85
64638;HTU21D;51049;45.046;38.950;2023-03-08T10:08:17;19.47;40.82
64638;HTU21D;51049;45.046;38.950;2023-03-08T10:11:03;19.51;40.69
64638;HTU21D;51049;45.046;38.950;2023-03-08T10:13:33;19.56;40.65
64638;HTU21D;51049;45.046;38.950;2023-03-08T10:16:19;19.70;40.78
64638;HTU21D;51049;45.046;38.950;2023-03-08T10:22:37;19.98;40.15
64638;HTU21D;51049;45.046;38.950;2023-03-08T10:25:39;20.00;39.43
64638;HTU21D;51049;45.046;38.950;2023-03-08T10:28:23;19.98;38.26
64638;HTU21D;51049;45.046;38.950;2023-03-08T10:31:31;19.95;38.62
64638;HTU21D;51049;45.046;38.950;2023-03-08T10:34:33;19.99;38.97
64638;HTU21D;51049;45.046;38.950;2023-03-08T10:37:36;20.06;38.10
64638;HTU21D;51049;45.046;38.950;2023-03-08T10:40:18;20.14;37.62
64638;HTU21D;51049;45.046;38.950;2023-03-08T10:43:26;20.10;38.00
64638;HTU21D;51049;45.046;38.950;2023-03-08T10:49:40;20.09;37.52
64638;HTU21D;51049;45.046;38.950;2023-03-08T10:52:40;20.16;37.56
64638;HTU21D;51049;45.046;38.950;2023-03-08T10:55:41;20.28;36.78
64638;HTU21D;51049;45.046;38.950;2023-03-08T10:58:55;20.28;36.69
64638;HTU21D;51049;45.046;38.950;2023-03-08T11:08:36;20.51;36.56
64638;HTU21D;51049;45.046;38.950;2023-03-08T11:11:26;20.58;36.38
64638;HTU21D;51049;45.046;38.950;2023-03-08T11:18:50;20.76;36.02
64638;HTU21D;51049;45.046;38.950;2023-03-08T11:59:16;20.55;34.41
64638;HTU21D;51049;45.046;38.950;2023-03-08T12:02:18;20.64;34.66
64638;HTU21D;51049;45.046;38.950;2023-03-08T12:05:15;20.72;34.40
64638;HTU21D;51049;45.046;38.950;2023-03-08T12:12:04;20.91;34.36
64638;HTU21D;51049;45.046;38.950;2023-03-08T12:18:38;21.08;34.50
64638;HTU21D;51049;45.046;38.950;2023-03-08T12:35:24;23.76;30.61
64638;HTU21D;51049;45.046;38.950;2023-03-08T12:42:24;24.62;29.49
64638;HTU21D;51049;45.046;38.950;2023-03-08T12:45:29;24.89;29.30
64638;HTU21D;51049;45.046;38.950;2023-03-08T12:48:26;25.08;28.93
64638;HTU21D;51049;45.046;38.950;2023-03-08T13:02:02;24.99;28.39
64638;HTU21D;51049;45.046;38.950;2023-03-08T13:04:59;24.90;28.39
64638;HTU21D;51049;45.046;38.950;2023-03-08T13:20:22;25.48;28.16
64638;HTU21D;51049;45.046;38.950;2023-03-08T13:28:17;25.87;27.02
64638;HTU21D;51049;45.046;38.950;2023-03-08T13:33:47;25.51;27.06
64638;HTU21D;51049;45.046;38.950;2023-03-08T13:36:34;25.35;27.26
64638;HTU21D;51049;45.046;38.950;2023-03-08T13:50:04;25.00;26.61
64638;HTU21D;51049;45.046;38.950;2023-03-08T13:59:35;24.09;27.04
64638;HTU21D;51049;45.046;38.950;2023-03-08T14:02:43;23.90;26.91
64638;HTU21D;51049;45.046;38.950;2023-03-08T14:12:43;23.42;26.83
64638;HTU21D;51049;45.046;38.950;2023-03-08T14:15:57;23.26;27.23
64638;HTU21D;51049;45.046;38.950;2023-03-08T14:19:07;23.08;27.29
64638;HTU21D;51049;45.046;38.950;2023-03-08T14:25:00;22.82;27.49
64638;HTU21D;51049;45.046;38.950;2023-03-08T14:31:38;21.04;29.90
64638;HTU21D;51049;45.046;38.950;2023-03-08T14:37:45;21.70;29.39
64638;HTU21D;51049;45.046;38.950;2023-03-08T14:41:03;22.08;28.91
64638;HTU21D;51049;45.046;38.950;2023-03-08T14:43:47;22.13;28.68
64638;HTU21D;51049;45.046;38.950;2023-03-08T14:46:18;22.05;28.85
64638;HTU21D;51049;45.046;38.950;2023-03-08T14:48:59;21.81;28.98
64638;HTU21D;51049;45.046;38.950;2023-03-08T14:51:42;21.49;29.36
64638;HTU21D;51049;45.046;38.950;2023-03-08T14:54:37;20.71;30.29
64638;HTU21D;51049;45.046;38.950;2023-03-08T14:57:32;19.92;31.24
64638;HTU21D;51049;45.046;38.950;2023-03-08T15:00:22;19.11;32.12
64638;HTU21D;51049;45.046;38.950;2023-03-08T15:03:02;18.62;32.80
64638;HTU21D;51049;45.046;38.950;2023-03-08T15:05:37;18.14;33.28
64638;HTU21D;51049;45.046;38.950;2023-03-08T15:08:09;17.77;33.59
64638;HTU21D;51049;45.046;38.950;2023-03-08T15:10:40;17.41;33.79
64638;HTU21D;51049;45.046;38.950;2023-03-08T15:13:19;17.09;34.05
64638;HTU21D;51049;45.046;38.950;2023-03-08T15:15:46;16.82;34.25
64638;HTU21D;51049;45.046;38.950;2023-03-08T15:18:45;16.54;34.43
64638;HTU21D;51049;45.046;38.950;2023-03-08T15:21:13;16.30;34.65
64638;HTU21D;51049;45.046;38.950;2023-03-08T15:23:44;16.08;34.79
64638;HTU21D;51049;45.046;38.950;2023-03-08T15:26:21;15.87;34.98
64638;HTU21D;51049;45.046;38.950;2023-03-08T15:28:54;15.68;35.12
64638;HTU21D;51049;45.046;38.950;2023-03-08T15:31:32;15.52;35.29
64638;HTU21D;51049;45.046;38.950;2023-03-08T15:34:11;15.37;35.44
64638;HTU21D;51049;45.046;38.950;2023-03-08T15:36:43;15.23;35.56
64638;HTU21D;51049;45.046;38.950;2023-03-08T15:39:35;15.12;35.72
64638;HTU21D;51049;45.046;38.950;2023-03-08T15:43:22;14.96;35.88
64638;HTU21D;51049;45.046;38.950;2023-03-08T15:45:58;14.85;35.95
64638;HTU21D;51049;45.046;38.950;2023-03-08T15:48:29;14.74;36.07
64638;HTU21D;51049;45.046;38.950;2023-03-08T15:50:56;14.66;36.21
64638;HTU21D;51049;45.046;38.950;2023-03-08T15:53:35;14.57;36.37
64638;HTU21D;51049;45.046;38.950;2023-03-08T15:56:10;14.48;36.48
64638;HTU21D;51049;45.046;38.950;2023-03-08T15:58:44;14.39;36.59
64638;HTU21D;51049;45.046;38.950;2023-03-08T16:01:23;14.28;36.72
64638;HTU21D;51049;45.046;38.950;2023-03-08T16:07:34;14.03;37.02
64638;HTU21D;51049;45.046;38.950;2023-03-08T16:10:35;13.93;37.20
64638;HTU21D;51049;45.046;38.950;2023-03-08T16:13:06;13.81;37.37
64638;HTU21D;51049;45.046;38.950;2023-03-08T16:15:40;13.71;37.56
64638;HTU21D;51049;45.046;38.950;2023-03-08T16:18:35;13.60;37.75
64638;HTU21D;51049;45.046;38.950;2023-03-08T16:21:23;13.49;37.83
64638;HTU21D;51049;45.046;38.950;2023-03-08T16:23:55;13.39;37.98
64638;HTU21D;51049;45.046;38.950;2023-03-08T16:26:30;13.30;38.14
64638;HTU21D;51049;45.046;38.950;2023-03-08T16:29:00;13.20;38.30
64638;HTU21D;51049;45.046;38.950;2023-03-08T16:31:32;13.14;38.40
64638;HTU21D;51049;45.046;38.950;2023-03-08T16:34:07;13.08;38.53
64638;HTU21D;51049;45.046;38.950;2023-03-08T16:36:35;13.00;38.66
64638;HTU21D;51049;45.046;38.950;2023-03-08T16:39:08;12.93;38.79
64638;HTU21D;51049;45.046;38.950;2023-03-08T16:41:36;12.88;38.90
64638;HTU21D;51049;45.046;38.950;2023-03-08T16:44:03;12.86;38.97
64638;HTU21D;51049;45.046;38.950;2023-03-08T16:46:40;12.78;39.04
64638;HTU21D;51049;45.046;38.950;2023-03-08T16:49:08;12.71;39.12
64638;HTU21D;51049;45.046;38.950;2023-03-08T16:51:42;12.63;39.25
64638;HTU21D;51049;45.046;38.950;2023-03-08T16:54:43;12.58;39.48
64638;HTU21D;51049;45.046;38.950;2023-03-08T16:57:39;12.49;39.55
64638;HTU21D;51049;45.046;38.950;2023-03-08T17:00:08;12.44;39.63
64638;HTU21D;51049;45.046;38.950;2023-03-08T17:02:43;12.38;39.70
64638;HTU21D;51049;45.046;38.950;2023-03-08T17:05:11;12.31;39.80
64638;HTU21D;51049;45.046;38.950;2023-03-08T17:07:47;12.27;39.90
64638;HTU21D;51049;45.046;38.950;2023-03-08T17:10:40;12.20;39.96
64638;HTU21D;51049;45.046;38.950;2023-03-08T17:13:28;12.14;40.10
64638;HTU21D;51049;45.046;38.950;2023-03-08T17:16:09;12.07;40.17
64638;HTU21D;51049;45.046;38.950;2023-03-08T17:18:35;12.02;40.23
64638;HTU21D;51049;45.046;38.950;2023-03-08T17:21:04;11.98;40.23
64638;HTU21D;51049;45.046;38.950;2023-03-08T17:23:33;11.92;40.33
64638;HTU21D;51049;45.046;38.950;2023-03-08T17:26:07;11.86;40.43
64638;HTU21D;51049;45.046;38.950;2023-03-08T17:28:34;11.78;40.55
64638;HTU21D;51049;45.046;38.950;2023-03-08T17:31:01;11.69;40.66
64638;HTU21D;51049;45.046;38.950;2023-03-08T17:33:33;11.60;40.81
64638;HTU21D;51049;45.046;38.950;2023-03-08T17:35:59;11.56;40.91
64638;HTU21D;51049;45.046;38.950;2023-03-08T17:38:27;11.57;40.97
64638;HTU21D;51049;45.046;38.950;2023-03-08T17:40:57;11.60;40.97
64638;HTU21D;51049;45.046;38.950;2023-03-08T17:43:23;11.64;41.03
64638;HTU21D;51049;45.046;38.950;2023-03-08T17:46:22;11.68;41.09
64638;HTU21D;51049;45.046;38.950;2023-03-08T17:48:51;11.68;41.04
64638;HTU21D;51049;45.046;38.950;2023-03-08T17:51:33;11.66;41.12
64638;HTU21D;51049;45.046;38.950;2023-03-08T17:54:02;11.70;41.16
64638;HTU21D;51049;45.046;38.950;2023-03-08T17:56:35;11.70;41.25
64638;HTU21D;51049;45.046;38.950;2023-03-08T17:59:03;11.71;41.24
64638;HTU21D;51049;45.046;38.950;2023-03-08T18:01:32;11.70;41.33
64638;HTU21D;51049;45.046;38.950;2023-03-08T18:04:10;11.69;41.42
64638;HTU21D;51049;45.046;38.950;2023-03-08T18:06:41;11.70;41.49
64638;HTU21D;51049;45.046;38.950;2023-03-08T18:09:18;11.72;41.52
64638;HTU21D;51049;45.046;38.950;2023-03-08T18:11:57;11.71;41.54
64638;HTU21D;51049;45.046;38.950;2023-03-08T18:14:29;11.68;41.62
64638;HTU21D;51049;45.046;38.950;2023-03-08T18:16:59;11.67;41.65
64638;HTU21D;51049;45.046;38.950;2023-03-08T18:19:28;11.67;41.71
64638;HTU21D;51049;45.046;38.950;2023-03-08T18:22:00;11.66;41.77
64638;HTU21D;51049;45.046;38.950;2023-03-08T18:24:29;11.64;41.83
64638;HTU21D;51049;45.046;38.950;2023-03-08T18:26:55;11.66;41.90
64638;HTU21D;51049;45.046;38.950;2023-03-08T18:29:23;11.67;41.91
64638;HTU21D;51049;45.046;38.950;2023-03-08T18:31:49;11.68;42.01
64638;HTU21D;51049;45.046;38.950;2023-03-08T18:34:20;11.69;42.00
64638;HTU21D;51049;45.046;38.950;2023-03-08T18:36:48;11.70;42.01
64638;HTU21D;51049;45.046;38.950;2023-03-08T18:39:26;11.70;42.05
64638;HTU21D;51049;45.046;38.950;2023-03-08T18:42:01;11.70;42.10
64638;HTU21D;51049;45.046;38.950;2023-03-08T18:44:31;11.68;42.16
64638;HTU21D;51049;45.046;38.950;2023-03-08T18:47:04;11.70;42.21
64638;HTU21D;51049;45.046;38.950;2023-03-08T18:49:30;11.69;42.26
64638;HTU21D;51049;45.046;38.950;2023-03-08T18:51:56;11.70;42.30
64638;HTU21D;51049;45.046;38.950;2023-03-08T18:54:23;11.69;42.33